ASX668 GOBD-GCLP
Flight info
| Callsign | ASX668 |
|---|---|
| Flight time | 1h 52m |
| Altitude | 45000 |
| Route | LIMAX1B LIMAX UB600 PE DCT MAURI L660 DKH M660 ROTUM/N0473F430 DCT REMGI |
| Aircraft | C700/M-SBDGRWXY/LB2 |
Departure
| Time | 2026-04-22 06:43 |
|---|---|
| Airport | Blaise Diagne International Airport (GOBD) |
Arrival
| Time | 2026-04-22 08:36 |
|---|---|
| Airport | Gran Canaria Airport (GCLP) |
| Time | Latitude | Longitude | Altitude | Speed | Heading |
|---|---|---|---|---|---|
| 2026-04-22 06:29 | 14.67838 | -17.06754 | 261 ft | 0 kts | 89° |
| 2026-04-22 06:33 | 14.67838 | -17.06769 | 261 ft | 2 kts | 96° |
| 2026-04-22 06:34 | 14.67841 | -17.06786 | 261 ft | 2 kts | 112° |
| 2026-04-22 06:34 | 14.67852 | -17.06799 | 261 ft | 2 kts | 160° |
| 2026-04-22 06:34 | 14.67861 | -17.06801 | 261 ft | 0 kts | 177° |
| 2026-04-22 06:34 | 14.67862 | -17.06801 | 261 ft | 0 kts | 177° |
| 2026-04-22 06:36 | 14.67858 | -17.06801 | 261 ft | 2 kts | 177° |
| 2026-04-22 06:36 | 14.67821 | -17.06800 | 261 ft | 9 kts | 178° |
| 2026-04-22 06:36 | 14.67755 | -17.06800 | 262 ft | 10 kts | 182° |
| 2026-04-22 06:37 | 14.67708 | -17.06827 | 262 ft | 6 kts | 254° |
| 2026-04-22 06:37 | 14.67701 | -17.06886 | 262 ft | 10 kts | 269° |
| 2026-04-22 06:37 | 14.67694 | -17.06965 | 262 ft | 11 kts | 239° |
| 2026-04-22 06:37 | 14.67613 | -17.06985 | 263 ft | 14 kts | 179° |
| 2026-04-22 06:38 | 14.67551 | -17.07009 | 263 ft | 15 kts | 230° |
| 2026-04-22 06:38 | 14.67502 | -17.07094 | 263 ft | 15 kts | 187° |
| 2026-04-22 06:38 | 14.67395 | -17.07094 | 264 ft | 16 kts | 180° |
| 2026-04-22 06:38 | 14.67283 | -17.07094 | 265 ft | 16 kts | 180° |
| 2026-04-22 06:39 | 14.67156 | -17.07094 | 265 ft | 21 kts | 180° |
| 2026-04-22 06:39 | 14.66930 | -17.07093 | 267 ft | 26 kts | 179° |
| 2026-04-22 06:39 | 14.66809 | -17.07092 | 267 ft | 26 kts | 180° |
| 2026-04-22 06:39 | 14.66630 | -17.07092 | 268 ft | 26 kts | 180° |
| 2026-04-22 06:40 | 14.66452 | -17.07087 | 269 ft | 26 kts | 181° |
| 2026-04-22 06:40 | 14.66272 | -17.07087 | 271 ft | 26 kts | 176° |
| 2026-04-22 06:40 | 14.66093 | -17.07082 | 272 ft | 26 kts | 183° |
| 2026-04-22 06:40 | 14.65914 | -17.07080 | 273 ft | 26 kts | 179° |
| 2026-04-22 06:41 | 14.65733 | -17.07080 | 274 ft | 26 kts | 181° |
| 2026-04-22 06:41 | 14.65611 | -17.07082 | 274 ft | 0 kts | 180° |
| 2026-04-22 06:41 | 14.65571 | -17.07082 | 275 ft | 12 kts | 180° |
| 2026-04-22 06:42 | 14.65531 | -17.07174 | 275 ft | 21 kts | 270° |
| 2026-04-22 06:42 | 14.65619 | -17.07263 | 274 ft | 20 kts | 354° |
| 2026-04-22 06:42 | 14.66005 | -17.07273 | 270 ft | 104 kts | 359° |
| 2026-04-22 06:42 | 14.67029 | -17.07289 | 392 ft | 182 kts | 359° |
| 2026-04-22 06:43 | 14.68372 | -17.07309 | 865 ft | 195 kts | 359° |
| 2026-04-22 06:43 | 14.69685 | -17.07311 | 1611 ft | 195 kts | 360° |
| 2026-04-22 06:43 | 14.71056 | -17.07315 | 2342 ft | 198 kts | 358° |
| 2026-04-22 06:43 | 14.72528 | -17.07332 | 3070 ft | 215 kts | 358° |
| 2026-04-22 06:44 | 14.74152 | -17.07351 | 3814 ft | 251 kts | 358° |
| 2026-04-22 06:44 | 14.75981 | -17.07368 | 4577 ft | 271 kts | 359° |
| 2026-04-22 06:44 | 14.77905 | -17.07384 | 5322 ft | 281 kts | 359° |
| 2026-04-22 06:44 | 14.79875 | -17.07401 | 6072 ft | 287 kts | 359° |
| 2026-04-22 06:45 | 14.81892 | -17.07421 | 6798 ft | 292 kts | 359° |
| 2026-04-22 06:45 | 14.83946 | -17.07442 | 7514 ft | 298 kts | 359° |
| 2026-04-22 06:45 | 14.85995 | -17.07461 | 8233 ft | 301 kts | 359° |
| 2026-04-22 06:45 | 14.88105 | -17.07480 | 8978 ft | 303 kts | 359° |
| 2026-04-22 06:46 | 14.90233 | -17.07500 | 9732 ft | 309 kts | 358° |
| 2026-04-22 06:46 | 14.92442 | -17.07521 | 10446 ft | 324 kts | 358° |
| 2026-04-22 06:46 | 14.94779 | -17.07545 | 11153 ft | 357 kts | 358° |
| 2026-04-22 06:46 | 14.97344 | -17.07569 | 11895 ft | 371 kts | 358° |
| 2026-04-22 06:47 | 14.99951 | -17.07591 | 12648 ft | 382 kts | 358° |
| 2026-04-22 06:47 | 15.02604 | -17.07616 | 13421 ft | 381 kts | 358° |
| 2026-04-22 06:47 | 15.05283 | -17.07642 | 14144 ft | 388 kts | 358° |
| 2026-04-22 06:47 | 15.07985 | -17.07667 | 14843 ft | 388 kts | 358° |
| 2026-04-22 06:48 | 15.10694 | -17.07692 | 15549 ft | 392 kts | 357° |
| 2026-04-22 06:48 | 15.13442 | -17.07719 | 16288 ft | 398 kts | 357° |
| 2026-04-22 06:48 | 15.16209 | -17.07745 | 17033 ft | 397 kts | 357° |
| 2026-04-22 06:48 | 15.19005 | -17.07771 | 17799 ft | 405 kts | 356° |
| 2026-04-22 06:49 | 15.21841 | -17.07799 | 18525 ft | 407 kts | 356° |
| 2026-04-22 06:49 | 15.24683 | -17.07825 | 19204 ft | 408 kts | 356° |
| 2026-04-22 06:49 | 15.27520 | -17.07852 | 19893 ft | 408 kts | 356° |
| 2026-04-22 06:49 | 15.30364 | -17.07879 | 20604 ft | 409 kts | 356° |
| 2026-04-22 06:50 | 15.33221 | -17.07913 | 21327 ft | 411 kts | 355° |
| 2026-04-22 06:50 | 15.36056 | -17.08271 | 22065 ft | 410 kts | 346° |
| 2026-04-22 06:50 | 15.38869 | -17.08819 | 22842 ft | 411 kts | 347° |
| 2026-04-22 06:50 | 15.41664 | -17.09303 | 23583 ft | 414 kts | 348° |
| 2026-04-22 06:51 | 15.44523 | -17.09792 | 24234 ft | 417 kts | 347° |
| 2026-04-22 06:51 | 15.47387 | -17.10321 | 24902 ft | 420 kts | 347° |
| 2026-04-22 06:51 | 15.50273 | -17.10860 | 25586 ft | 423 kts | 347° |
| 2026-04-22 06:51 | 15.53181 | -17.11381 | 26279 ft | 426 kts | 347° |
| 2026-04-22 06:52 | 15.56114 | -17.11902 | 27001 ft | 428 kts | 346° |
| 2026-04-22 06:52 | 15.59055 | -17.12437 | 27737 ft | 430 kts | 346° |
| 2026-04-22 06:52 | 15.62002 | -17.12975 | 28493 ft | 430 kts | 346° |
| 2026-04-22 06:52 | 15.64944 | -17.13507 | 29265 ft | 429 kts | 346° |
| 2026-04-22 06:53 | 15.67887 | -17.14037 | 30049 ft | 428 kts | 346° |
| 2026-04-22 06:53 | 15.70813 | -17.14568 | 30701 ft | 427 kts | 345° |
| 2026-04-22 06:53 | 15.73750 | -17.15103 | 31156 ft | 431 kts | 345° |
| 2026-04-22 06:53 | 15.76726 | -17.15645 | 31511 ft | 437 kts | 345° |
| 2026-04-22 06:54 | 15.79739 | -17.16190 | 31866 ft | 442 kts | 345° |
| 2026-04-22 06:54 | 15.82784 | -17.16741 | 32226 ft | 447 kts | 345° |
| 2026-04-22 06:54 | 15.85858 | -17.17299 | 32590 ft | 451 kts | 345° |
| 2026-04-22 06:54 | 15.88963 | -17.17864 | 32965 ft | 454 kts | 345° |
| 2026-04-22 06:55 | 15.92089 | -17.18431 | 33339 ft | 458 kts | 345° |
| 2026-04-22 06:55 | 15.95236 | -17.19002 | 33720 ft | 461 kts | 345° |
| 2026-04-22 06:55 | 15.98364 | -17.19571 | 34082 ft | 464 kts | 345° |
| 2026-04-22 06:55 | 16.01552 | -17.20151 | 34417 ft | 466 kts | 345° |
| 2026-04-22 06:56 | 16.04759 | -17.20734 | 34757 ft | 469 kts | 345° |
| 2026-04-22 06:56 | 16.07979 | -17.21319 | 35102 ft | 470 kts | 345° |
| 2026-04-22 06:56 | 16.11208 | -17.21907 | 35451 ft | 472 kts | 345° |
| 2026-04-22 06:56 | 16.14443 | -17.22496 | 35803 ft | 472 kts | 345° |
| 2026-04-22 06:57 | 16.17682 | -17.23085 | 36156 ft | 473 kts | 345° |
| 2026-04-22 06:57 | 16.20925 | -17.23676 | 36523 ft | 473 kts | 345° |
| 2026-04-22 06:57 | 16.24174 | -17.24268 | 36816 ft | 475 kts | 345° |
| 2026-04-22 06:57 | 16.27442 | -17.24865 | 37067 ft | 478 kts | 345° |
| 2026-04-22 06:58 | 16.30725 | -17.25463 | 37319 ft | 480 kts | 345° |
| 2026-04-22 06:58 | 16.34027 | -17.26064 | 37571 ft | 480 kts | 344° |
| 2026-04-22 06:58 | 16.37300 | -17.26659 | 37830 ft | 476 kts | 344° |
| 2026-04-22 06:58 | 16.40559 | -17.27255 | 38097 ft | 477 kts | 344° |
| 2026-04-22 06:59 | 16.43836 | -17.27857 | 38353 ft | 479 kts | 344° |
| 2026-04-22 06:59 | 16.47076 | -17.28448 | 38616 ft | 480 kts | 344° |
| 2026-04-22 06:59 | 16.50373 | -17.29049 | 38838 ft | 481 kts | 344° |
| 2026-04-22 06:59 | 16.53662 | -17.29648 | 39061 ft | 478 kts | 344° |
| 2026-04-22 07:00 | 16.56924 | -17.30244 | 39287 ft | 473 kts | 344° |
| 2026-04-22 07:00 | 16.60166 | -17.30839 | 39519 ft | 474 kts | 344° |
| 2026-04-22 07:00 | 16.63418 | -17.31437 | 39751 ft | 475 kts | 344° |
| 2026-04-22 07:00 | 16.66678 | -17.32032 | 39989 ft | 475 kts | 344° |
| 2026-04-22 07:01 | 16.69934 | -17.32626 | 40227 ft | 475 kts | 344° |
| 2026-04-22 07:01 | 16.73177 | -17.33197 | 40468 ft | 472 kts | 347° |
| 2026-04-22 07:01 | 16.76475 | -17.33389 | 40713 ft | 476 kts | 355° |
| 2026-04-22 07:01 | 16.79794 | -17.33185 | 40951 ft | 479 kts | 359° |
| 2026-04-22 07:02 | 16.83121 | -17.32940 | 41206 ft | 479 kts | 358° |
| 2026-04-22 07:02 | 16.86452 | -17.32711 | 41458 ft | 478 kts | 358° |
| 2026-04-22 07:02 | 16.89769 | -17.32484 | 41714 ft | 478 kts | 358° |
| 2026-04-22 07:02 | 16.93088 | -17.32247 | 41978 ft | 477 kts | 358° |
| 2026-04-22 07:03 | 16.96362 | -17.32012 | 42239 ft | 476 kts | 358° |
| 2026-04-22 07:03 | 16.99663 | -17.31779 | 42497 ft | 475 kts | 358° |
| 2026-04-22 07:03 | 17.03001 | -17.31546 | 42774 ft | 474 kts | 358° |
| 2026-04-22 07:03 | 17.06238 | -17.31318 | 43042 ft | 472 kts | 358° |
| 2026-04-22 07:04 | 17.09555 | -17.31081 | 43318 ft | 471 kts | 358° |
| 2026-04-22 07:04 | 17.12772 | -17.30854 | 43592 ft | 469 kts | 358° |
| 2026-04-22 07:04 | 17.16062 | -17.30622 | 43875 ft | 467 kts | 358° |
| 2026-04-22 07:04 | 17.19254 | -17.30396 | 44152 ft | 465 kts | 358° |
| 2026-04-22 07:05 | 17.22475 | -17.30168 | 44442 ft | 463 kts | 358° |
| 2026-04-22 07:05 | 17.25677 | -17.29941 | 44701 ft | 460 kts | 358° |
| 2026-04-22 07:05 | 17.28861 | -17.29715 | 44915 ft | 457 kts | 358° |
| 2026-04-22 07:06 | 17.35250 | -17.29267 | 44934 ft | 463 kts | 358° |
| 2026-04-22 07:06 | 17.41711 | -17.28806 | 44931 ft | 468 kts | 358° |
| 2026-04-22 07:07 | 17.48244 | -17.28344 | 44940 ft | 472 kts | 358° |
| 2026-04-22 07:07 | 17.54832 | -17.27875 | 44947 ft | 476 kts | 358° |
| 2026-04-22 07:08 | 17.61464 | -17.27403 | 44948 ft | 477 kts | 358° |
| 2026-04-22 07:08 | 17.68067 | -17.26933 | 44953 ft | 474 kts | 358° |
| 2026-04-22 07:09 | 17.74634 | -17.26467 | 44953 ft | 472 kts | 358° |
| 2026-04-22 07:09 | 17.81196 | -17.26000 | 44950 ft | 474 kts | 358° |
| 2026-04-22 07:10 | 17.87799 | -17.25529 | 44950 ft | 476 kts | 358° |
| 2026-04-22 07:10 | 17.94348 | -17.25060 | 44950 ft | 472 kts | 357° |
| 2026-04-22 07:11 | 18.00887 | -17.24595 | 44950 ft | 470 kts | 357° |
| 2026-04-22 07:11 | 18.07452 | -17.24128 | 44950 ft | 474 kts | 357° |
| 2026-04-22 07:12 | 18.14055 | -17.23654 | 44952 ft | 476 kts | 357° |
| 2026-04-22 07:12 | 18.20601 | -17.23185 | 44951 ft | 473 kts | 357° |
| 2026-04-22 07:13 | 18.27164 | -17.22716 | 44954 ft | 472 kts | 357° |
| 2026-04-22 07:13 | 18.33742 | -17.22246 | 44951 ft | 475 kts | 357° |
| 2026-04-22 07:14 | 18.40370 | -17.21770 | 44953 ft | 478 kts | 357° |
| 2026-04-22 07:14 | 18.46990 | -17.21294 | 44953 ft | 476 kts | 356° |
| 2026-04-22 07:15 | 18.53584 | -17.20822 | 44955 ft | 474 kts | 356° |
| 2026-04-22 07:15 | 18.60169 | -17.20350 | 44955 ft | 475 kts | 356° |
| 2026-04-22 07:16 | 18.66776 | -17.19875 | 44954 ft | 477 kts | 356° |
| 2026-04-22 07:16 | 18.73409 | -17.19397 | 44953 ft | 478 kts | 356° |
| 2026-04-22 07:17 | 18.80053 | -17.18919 | 44949 ft | 479 kts | 356° |
| 2026-04-22 07:17 | 18.86689 | -17.18440 | 44954 ft | 477 kts | 356° |
| 2026-04-22 07:18 | 18.93290 | -17.17965 | 44951 ft | 474 kts | 356° |
| 2026-04-22 07:18 | 18.99861 | -17.17491 | 44955 ft | 472 kts | 356° |
| 2026-04-22 07:19 | 19.06370 | -17.17021 | 44953 ft | 472 kts | 356° |
| 2026-04-22 07:19 | 19.12941 | -17.16547 | 44956 ft | 474 kts | 356° |
| 2026-04-22 07:20 | 19.19539 | -17.16069 | 44955 ft | 475 kts | 356° |
| 2026-04-22 07:20 | 19.26115 | -17.15592 | 44956 ft | 472 kts | 356° |
| 2026-04-22 07:21 | 19.32658 | -17.15119 | 44958 ft | 470 kts | 356° |
| 2026-04-22 07:21 | 19.39172 | -17.14647 | 44956 ft | 468 kts | 356° |
| 2026-04-22 07:22 | 19.45661 | -17.14177 | 44958 ft | 468 kts | 356° |
| 2026-04-22 07:22 | 19.52136 | -17.13707 | 44959 ft | 470 kts | 356° |
| 2026-04-22 07:23 | 19.58669 | -17.13231 | 44961 ft | 471 kts | 356° |
| 2026-04-22 07:23 | 19.65214 | -17.12756 | 44954 ft | 472 kts | 356° |
| 2026-04-22 07:24 | 19.71744 | -17.12279 | 44955 ft | 469 kts | 356° |
| 2026-04-22 07:24 | 19.78246 | -17.11806 | 44966 ft | 467 kts | 356° |
| 2026-04-22 07:25 | 19.84715 | -17.11334 | 44958 ft | 466 kts | 356° |
| 2026-04-22 07:25 | 19.91197 | -17.10863 | 44966 ft | 468 kts | 356° |
| 2026-04-22 07:26 | 19.97706 | -17.10387 | 44958 ft | 469 kts | 356° |
| 2026-04-22 07:26 | 20.04191 | -17.09913 | 44961 ft | 470 kts | 356° |
| 2026-04-22 07:27 | 20.10709 | -17.09435 | 44967 ft | 468 kts | 356° |
| 2026-04-22 07:27 | 20.17193 | -17.08961 | 44963 ft | 466 kts | 355° |
| 2026-04-22 07:28 | 20.25785 | -17.08331 | 44966 ft | 463 kts | 355° |
| 2026-04-22 07:28 | 20.32232 | -17.07860 | 44967 ft | 465 kts | 355° |
| 2026-04-22 07:29 | 20.38709 | -17.07383 | 44963 ft | 467 kts | 355° |
| 2026-04-22 07:29 | 20.45201 | -17.06907 | 44964 ft | 468 kts | 355° |
| 2026-04-22 07:30 | 20.51686 | -17.06428 | 44965 ft | 466 kts | 355° |
| 2026-04-22 07:30 | 20.58151 | -17.05953 | 44968 ft | 464 kts | 355° |
| 2026-04-22 07:31 | 20.64591 | -17.05479 | 44967 ft | 463 kts | 355° |
| 2026-04-22 07:31 | 20.71013 | -17.05005 | 44967 ft | 462 kts | 355° |
| 2026-04-22 07:32 | 20.77418 | -17.04534 | 44974 ft | 462 kts | 355° |
| 2026-04-22 07:32 | 20.83859 | -17.04058 | 44970 ft | 464 kts | 355° |
| 2026-04-22 07:33 | 20.90276 | -17.03476 | 44978 ft | 472 kts | 1° |
| 2026-04-22 07:33 | 20.96701 | -17.01484 | 44977 ft | 487 kts | 12° |
| 2026-04-22 07:34 | 21.03054 | -16.99039 | 44975 ft | 484 kts | 11° |
| 2026-04-22 07:34 | 21.09382 | -16.96615 | 44974 ft | 482 kts | 11° |
| 2026-04-22 07:35 | 21.15683 | -16.94186 | 44970 ft | 481 kts | 11° |
| 2026-04-22 07:35 | 21.22006 | -16.91758 | 44969 ft | 484 kts | 11° |
| 2026-04-22 07:36 | 21.28348 | -16.89311 | 44970 ft | 485 kts | 11° |
| 2026-04-22 07:36 | 21.34712 | -16.86858 | 44972 ft | 486 kts | 11° |
| 2026-04-22 07:37 | 21.41051 | -16.84298 | 44972 ft | 488 kts | 12° |
| 2026-04-22 07:37 | 21.47368 | -16.81778 | 44974 ft | 487 kts | 11° |
| 2026-04-22 07:38 | 21.53722 | -16.79233 | 44973 ft | 488 kts | 12° |
| 2026-04-22 07:38 | 21.60088 | -16.76677 | 44970 ft | 488 kts | 11° |
| 2026-04-22 07:39 | 21.66451 | -16.74127 | 44974 ft | 489 kts | 12° |
| 2026-04-22 07:39 | 21.72818 | -16.71566 | 44976 ft | 489 kts | 11° |
| 2026-04-22 07:40 | 21.79196 | -16.69005 | 44983 ft | 489 kts | 11° |
| 2026-04-22 07:40 | 21.85583 | -16.66432 | 44978 ft | 490 kts | 11° |
| 2026-04-22 07:41 | 21.91995 | -16.63949 | 44985 ft | 489 kts | 10° |
| 2026-04-22 07:41 | 21.98417 | -16.61455 | 44978 ft | 491 kts | 11° |
| 2026-04-22 07:42 | 22.04844 | -16.58944 | 44986 ft | 491 kts | 11° |
| 2026-04-22 07:42 | 22.11287 | -16.56441 | 44983 ft | 492 kts | 11° |
| 2026-04-22 07:43 | 22.17733 | -16.53920 | 44981 ft | 493 kts | 11° |
| 2026-04-22 07:43 | 22.24195 | -16.51401 | 44983 ft | 493 kts | 11° |
| 2026-04-22 07:44 | 22.30643 | -16.48877 | 44983 ft | 493 kts | 11° |
| 2026-04-22 07:44 | 22.37056 | -16.46370 | 44984 ft | 493 kts | 11° |
| 2026-04-22 07:45 | 22.43510 | -16.43841 | 44986 ft | 493 kts | 11° |
| 2026-04-22 07:45 | 22.49972 | -16.41307 | 44980 ft | 493 kts | 10° |
| 2026-04-22 07:46 | 22.56420 | -16.38777 | 44985 ft | 493 kts | 10° |
| 2026-04-22 07:46 | 22.62865 | -16.36245 | 44984 ft | 493 kts | 10° |
| 2026-04-22 07:47 | 22.69306 | -16.33712 | 44992 ft | 493 kts | 10° |
| 2026-04-22 07:47 | 22.75754 | -16.31174 | 44990 ft | 493 kts | 10° |
| 2026-04-22 07:48 | 22.82200 | -16.28634 | 44992 ft | 493 kts | 10° |
| 2026-04-22 07:48 | 22.88647 | -16.26092 | 44989 ft | 493 kts | 10° |
| 2026-04-22 07:49 | 22.95088 | -16.23548 | 44989 ft | 492 kts | 9° |
| 2026-04-22 07:49 | 23.01485 | -16.21021 | 44983 ft | 494 kts | 9° |
| 2026-04-22 07:50 | 23.07952 | -16.18462 | 44984 ft | 495 kts | 9° |
| 2026-04-22 07:50 | 23.14439 | -16.15892 | 44987 ft | 496 kts | 9° |
| 2026-04-22 07:51 | 23.20927 | -16.13320 | 44988 ft | 496 kts | 9° |
| 2026-04-22 07:51 | 23.27397 | -16.10752 | 44990 ft | 495 kts | 9° |
| 2026-04-22 07:52 | 23.33854 | -16.08188 | 44989 ft | 494 kts | 9° |
| 2026-04-22 07:52 | 23.40305 | -16.05622 | 44993 ft | 493 kts | 9° |
| 2026-04-22 07:53 | 23.46740 | -16.03060 | 44986 ft | 492 kts | 9° |
| 2026-04-22 07:53 | 23.53179 | -16.00496 | 44980 ft | 493 kts | 9° |
| 2026-04-22 07:54 | 23.59640 | -15.97918 | 44978 ft | 495 kts | 9° |
| 2026-04-22 07:54 | 23.66121 | -15.95329 | 44975 ft | 497 kts | 9° |
| 2026-04-22 07:55 | 23.72619 | -15.92776 | 44972 ft | 492 kts | 5° |
| 2026-04-22 07:55 | 23.75900 | -15.91922 | 44973 ft | 478 kts | 357° |
| 2026-04-22 07:55 | 23.79163 | -15.91486 | 44978 ft | 469 kts | 353° |
| 2026-04-22 07:56 | 23.85659 | -15.90813 | 44981 ft | 469 kts | 353° |
| 2026-04-22 07:56 | 23.92147 | -15.90120 | 44985 ft | 468 kts | 353° |
| 2026-04-22 07:57 | 23.98627 | -15.89446 | 44987 ft | 467 kts | 353° |
| 2026-04-22 07:57 | 24.05093 | -15.88758 | 44995 ft | 466 kts | 353° |
| 2026-04-22 07:58 | 24.11563 | -15.88080 | 44996 ft | 468 kts | 353° |
| 2026-04-22 07:58 | 24.18072 | -15.87389 | 44998 ft | 471 kts | 353° |
| 2026-04-22 07:59 | 24.24603 | -15.86699 | 45001 ft | 472 kts | 353° |
| 2026-04-22 07:59 | 24.31121 | -15.86005 | 45001 ft | 469 kts | 352° |
| 2026-04-22 08:00 | 24.37607 | -15.85319 | 45000 ft | 467 kts | 352° |
| 2026-04-22 08:00 | 24.44034 | -15.84637 | 45000 ft | 467 kts | 352° |
| 2026-04-22 08:01 | 24.50517 | -15.83951 | 45000 ft | 469 kts | 352° |
| 2026-04-22 08:01 | 24.57037 | -15.83255 | 45006 ft | 471 kts | 352° |
| 2026-04-22 08:02 | 24.63578 | -15.82559 | 45010 ft | 472 kts | 352° |
| 2026-04-22 08:02 | 24.70097 | -15.81862 | 45006 ft | 469 kts | 352° |
| 2026-04-22 08:03 | 24.76585 | -15.81171 | 45005 ft | 467 kts | 352° |
| 2026-04-22 08:03 | 24.83052 | -15.80480 | 45004 ft | 466 kts | 352° |
| 2026-04-22 08:04 | 24.89522 | -15.79792 | 45004 ft | 469 kts | 352° |
| 2026-04-22 08:04 | 24.95993 | -15.79097 | 45003 ft | 471 kts | 352° |
| 2026-04-22 08:05 | 25.02531 | -15.78060 | 45008 ft | 482 kts | 360° |
| 2026-04-22 08:05 | 25.05803 | -15.77244 | 44860 ft | 484 kts | 359° |
| 2026-04-22 08:05 | 25.09090 | -15.76451 | 44616 ft | 482 kts | 359° |
| 2026-04-22 08:06 | 25.12353 | -15.75666 | 44319 ft | 478 kts | 359° |
| 2026-04-22 08:06 | 25.15591 | -15.74874 | 44033 ft | 476 kts | 359° |
| 2026-04-22 08:06 | 25.18827 | -15.74083 | 43750 ft | 477 kts | 359° |
| 2026-04-22 08:06 | 25.22077 | -15.73297 | 43469 ft | 480 kts | 359° |
| 2026-04-22 08:07 | 25.25356 | -15.72500 | 43198 ft | 482 kts | 359° |
| 2026-04-22 08:07 | 25.28627 | -15.71695 | 43011 ft | 479 kts | 359° |
| 2026-04-22 08:07 | 25.35106 | -15.70114 | 43007 ft | 479 kts | 359° |
| 2026-04-22 08:08 | 25.41650 | -15.68515 | 43012 ft | 481 kts | 359° |
| 2026-04-22 08:08 | 25.48168 | -15.66913 | 43010 ft | 478 kts | 359° |
| 2026-04-22 08:09 | 25.54660 | -15.65330 | 42447 ft | 475 kts | 359° |
| 2026-04-22 08:09 | 25.57845 | -15.64532 | 41911 ft | 464 kts | 359° |
| 2026-04-22 08:09 | 25.60990 | -15.63761 | 41369 ft | 463 kts | 358° |
| 2026-04-22 08:10 | 25.64153 | -15.63007 | 40825 ft | 468 kts | 358° |
| 2026-04-22 08:10 | 25.67346 | -15.62228 | 40269 ft | 470 kts | 359° |
| 2026-04-22 08:10 | 25.70530 | -15.61425 | 39725 ft | 468 kts | 358° |
| 2026-04-22 08:10 | 25.73702 | -15.60636 | 39179 ft | 466 kts | 358° |
| 2026-04-22 08:11 | 25.76874 | -15.59870 | 38625 ft | 468 kts | 358° |
| 2026-04-22 08:11 | 25.80064 | -15.59096 | 38038 ft | 471 kts | 358° |
| 2026-04-22 08:11 | 25.83231 | -15.58309 | 37487 ft | 473 kts | 358° |
| 2026-04-22 08:11 | 25.86454 | -15.57507 | 36935 ft | 476 kts | 358° |
| 2026-04-22 08:12 | 25.89690 | -15.56711 | 36371 ft | 477 kts | 359° |
| 2026-04-22 08:12 | 25.92928 | -15.55914 | 35813 ft | 477 kts | 359° |
| 2026-04-22 08:12 | 25.96166 | -15.55113 | 35259 ft | 477 kts | 359° |
| 2026-04-22 08:12 | 25.99410 | -15.54311 | 34695 ft | 477 kts | 359° |
| 2026-04-22 08:13 | 26.02651 | -15.53511 | 34136 ft | 478 kts | 359° |
| 2026-04-22 08:13 | 26.05911 | -15.52709 | 33539 ft | 482 kts | 360° |
| 2026-04-22 08:13 | 26.09194 | -15.51898 | 32978 ft | 484 kts | 1° |
| 2026-04-22 08:13 | 26.12491 | -15.51078 | 32401 ft | 486 kts | 2° |
| 2026-04-22 08:14 | 26.15800 | -15.50257 | 31837 ft | 488 kts | 2° |
| 2026-04-22 08:14 | 26.19113 | -15.49436 | 31272 ft | 488 kts | 4° |
| 2026-04-22 08:14 | 26.21310 | -15.48892 | 30893 ft | 489 kts | 4° |
| 2026-04-22 08:14 | 26.24635 | -15.48067 | 30320 ft | 490 kts | 5° |
| 2026-04-22 08:15 | 26.27960 | -15.47241 | 29708 ft | 486 kts | 6° |
| 2026-04-22 08:15 | 26.31225 | -15.46423 | 29139 ft | 478 kts | 6° |
| 2026-04-22 08:15 | 26.34470 | -15.45619 | 28570 ft | 477 kts | 7° |
| 2026-04-22 08:15 | 26.37690 | -15.44822 | 28010 ft | 471 kts | 7° |
| 2026-04-22 08:16 | 26.40877 | -15.44027 | 27452 ft | 467 kts | 7° |
| 2026-04-22 08:16 | 26.44033 | -15.43240 | 26905 ft | 464 kts | 8° |
| 2026-04-22 08:16 | 26.47175 | -15.42459 | 26359 ft | 461 kts | 8° |
| 2026-04-22 08:16 | 26.50298 | -15.41681 | 25822 ft | 457 kts | 8° |
| 2026-04-22 08:17 | 26.53391 | -15.40908 | 25285 ft | 453 kts | 9° |
| 2026-04-22 08:17 | 26.56454 | -15.40144 | 24754 ft | 450 kts | 9° |
| 2026-04-22 08:17 | 26.59501 | -15.39385 | 24227 ft | 446 kts | 10° |
| 2026-04-22 08:17 | 26.62513 | -15.38631 | 23706 ft | 441 kts | 10° |
| 2026-04-22 08:18 | 26.65496 | -15.37885 | 23145 ft | 436 kts | 10° |
| 2026-04-22 08:18 | 26.68448 | -15.37147 | 22631 ft | 434 kts | 10° |
| 2026-04-22 08:18 | 26.71390 | -15.36412 | 22126 ft | 432 kts | 10° |
| 2026-04-22 08:18 | 26.74310 | -15.35681 | 21626 ft | 428 kts | 11° |
| 2026-04-22 08:19 | 26.77167 | -15.34964 | 21138 ft | 424 kts | 11° |
| 2026-04-22 08:19 | 26.80031 | -15.34247 | 20647 ft | 421 kts | 11° |
| 2026-04-22 08:19 | 26.82885 | -15.33532 | 20159 ft | 419 kts | 11° |
| 2026-04-22 08:19 | 26.85719 | -15.32820 | 19666 ft | 416 kts | 11° |
| 2026-04-22 08:20 | 26.88535 | -15.32114 | 19186 ft | 414 kts | 11° |
| 2026-04-22 08:20 | 26.91337 | -15.31410 | 18706 ft | 411 kts | 11° |
| 2026-04-22 08:20 | 26.94119 | -15.30711 | 18217 ft | 409 kts | 11° |
| 2026-04-22 08:20 | 26.96886 | -15.30016 | 17707 ft | 405 kts | 11° |
| 2026-04-22 08:21 | 26.99622 | -15.29327 | 17248 ft | 403 kts | 11° |
| 2026-04-22 08:21 | 27.02362 | -15.28639 | 16776 ft | 403 kts | 11° |
| 2026-04-22 08:21 | 27.05106 | -15.28028 | 16304 ft | 399 kts | 5° |
| 2026-04-22 08:21 | 27.07856 | -15.27978 | 15842 ft | 393 kts | 354° |
| 2026-04-22 08:22 | 27.10538 | -15.28472 | 15385 ft | 390 kts | 343° |
| 2026-04-22 08:22 | 27.13078 | -15.29492 | 14935 ft | 387 kts | 333° |
| 2026-04-22 08:22 | 27.15436 | -15.30922 | 14494 ft | 384 kts | 328° |
| 2026-04-22 08:22 | 27.17760 | -15.32376 | 14050 ft | 381 kts | 329° |
| 2026-04-22 08:23 | 27.20084 | -15.33791 | 13589 ft | 379 kts | 329° |
| 2026-04-22 08:23 | 27.22384 | -15.35206 | 13132 ft | 375 kts | 328° |
| 2026-04-22 08:23 | 27.24620 | -15.36603 | 12709 ft | 357 kts | 328° |
| 2026-04-22 08:23 | 27.26715 | -15.37901 | 12305 ft | 331 kts | 328° |
| 2026-04-22 08:24 | 27.28659 | -15.39101 | 11933 ft | 309 kts | 328° |
| 2026-04-22 08:24 | 27.30484 | -15.40235 | 11578 ft | 301 kts | 328° |
| 2026-04-22 08:24 | 27.32324 | -15.41382 | 11235 ft | 303 kts | 328° |
| 2026-04-22 08:24 | 27.34175 | -15.42531 | 10887 ft | 304 kts | 328° |
| 2026-04-22 08:25 | 27.36025 | -15.43677 | 10539 ft | 302 kts | 328° |
| 2026-04-22 08:25 | 27.37858 | -15.44814 | 10195 ft | 299 kts | 328° |
| 2026-04-22 08:25 | 27.39674 | -15.45943 | 9843 ft | 297 kts | 328° |
| 2026-04-22 08:25 | 27.41476 | -15.47063 | 9483 ft | 295 kts | 328° |
| 2026-04-22 08:26 | 27.43268 | -15.48176 | 9139 ft | 293 kts | 328° |
| 2026-04-22 08:26 | 27.45045 | -15.49281 | 8802 ft | 291 kts | 328° |
| 2026-04-22 08:26 | 27.46815 | -15.50382 | 8466 ft | 290 kts | 328° |
| 2026-04-22 08:26 | 27.48532 | -15.51449 | 8139 ft | 273 kts | 328° |
| 2026-04-22 08:27 | 27.50147 | -15.52452 | 7833 ft | 258 kts | 328° |
| 2026-04-22 08:27 | 27.51679 | -15.53407 | 7547 ft | 247 kts | 328° |
| 2026-04-22 08:27 | 27.53188 | -15.54282 | 7255 ft | 246 kts | 336° |
| 2026-04-22 08:27 | 27.54888 | -15.54686 | 6970 ft | 254 kts | 355° |
| 2026-04-22 08:28 | 27.56656 | -15.54492 | 6679 ft | 258 kts | 13° |
| 2026-04-22 08:28 | 27.58337 | -15.53804 | 6381 ft | 256 kts | 20° |
| 2026-04-22 08:28 | 27.59983 | -15.53075 | 6078 ft | 253 kts | 20° |
| 2026-04-22 08:28 | 27.61612 | -15.52375 | 5782 ft | 249 kts | 20° |
| 2026-04-22 08:29 | 27.63218 | -15.51690 | 5497 ft | 245 kts | 19° |
| 2026-04-22 08:29 | 27.64800 | -15.51010 | 5224 ft | 242 kts | 20° |
| 2026-04-22 08:29 | 27.66365 | -15.50336 | 4939 ft | 240 kts | 19° |
| 2026-04-22 08:29 | 27.67919 | -15.49672 | 4659 ft | 238 kts | 19° |
| 2026-04-22 08:30 | 27.69459 | -15.49017 | 4374 ft | 235 kts | 19° |
| 2026-04-22 08:30 | 27.70984 | -15.48365 | 4109 ft | 234 kts | 19° |
| 2026-04-22 08:30 | 27.72466 | -15.47731 | 3844 ft | 219 kts | 20° |
| 2026-04-22 08:30 | 27.73832 | -15.47146 | 3592 ft | 203 kts | 20° |
| 2026-04-22 08:31 | 27.75124 | -15.46594 | 3378 ft | 197 kts | 19° |
| 2026-04-22 08:31 | 27.76395 | -15.46052 | 3143 ft | 199 kts | 20° |
| 2026-04-22 08:31 | 27.78953 | -15.44958 | 2710 ft | 190 kts | 20° |
| 2026-04-22 08:32 | 27.80143 | -15.44435 | 2488 ft | 178 kts | 21° |
| 2026-04-22 08:32 | 27.81296 | -15.43919 | 2354 ft | 171 kts | 21° |
| 2026-04-22 08:32 | 27.82346 | -15.43460 | 2130 ft | 155 kts | 21° |
| 2026-04-22 08:32 | 27.83312 | -15.43032 | 1928 ft | 144 kts | 21° |
| 2026-04-22 08:33 | 27.84222 | -15.42630 | 1735 ft | 138 kts | 21° |
| 2026-04-22 08:33 | 27.85110 | -15.42236 | 1553 ft | 135 kts | 21° |
| 2026-04-22 08:33 | 27.85987 | -15.41847 | 1370 ft | 134 kts | 21° |
| 2026-04-22 08:33 | 27.86849 | -15.41464 | 1187 ft | 132 kts | 21° |
| 2026-04-22 08:34 | 27.87698 | -15.41088 | 1014 ft | 130 kts | 21° |
| 2026-04-22 08:34 | 27.88520 | -15.40724 | 852 ft | 125 kts | 20° |
| 2026-04-22 08:34 | 27.89328 | -15.40353 | 677 ft | 126 kts | 22° |
| 2026-04-22 08:34 | 27.90134 | -15.39977 | 509 ft | 125 kts | 18° |
| 2026-04-22 08:35 | 27.90947 | -15.39632 | 341 ft | 125 kts | 20° |
| 2026-04-22 08:35 | 27.91755 | -15.39286 | 159 ft | 122 kts | 19° |
| 2026-04-22 08:35 | 27.92502 | -15.38957 | 73 ft | 104 kts | 19° |
| 2026-04-22 08:35 | 27.93114 | -15.38695 | 57 ft | 81 kts | 18° |
| 2026-04-22 08:36 | 27.93408 | -15.38565 | 51 ft | 35 kts | 23° |
| 2026-04-22 08:36 | 27.93627 | -15.38472 | 52 ft | 32 kts | 22° |
| 2026-04-22 08:36 | 27.93831 | -15.38430 | 49 ft | 27 kts | 1° |
| 2026-04-22 08:36 | 27.93992 | -15.38463 | 44 ft | 17 kts | 299° |
| 2026-04-22 08:37 | 27.93898 | -15.38534 | 45 ft | 20 kts | 202° |
| 2026-04-22 08:37 | 27.93755 | -15.38596 | 48 ft | 22 kts | 200° |
| 2026-04-22 08:37 | 27.93609 | -15.38661 | 49 ft | 23 kts | 202° |
| 2026-04-22 08:37 | 27.93462 | -15.38728 | 53 ft | 23 kts | 198° |
| 2026-04-22 08:38 | 27.93311 | -15.38788 | 52 ft | 23 kts | 202° |
| 2026-04-22 08:38 | 27.93164 | -15.38861 | 55 ft | 23 kts | 205° |
| 2026-04-22 08:38 | 27.93015 | -15.38933 | 58 ft | 23 kts | 201° |
| 2026-04-22 08:38 | 27.92866 | -15.39000 | 63 ft | 23 kts | 202° |
| 2026-04-22 08:39 | 27.92739 | -15.39056 | 62 ft | 17 kts | 197° |
| 2026-04-22 08:39 | 27.92719 | -15.39121 | 63 ft | 11 kts | 291° |
| 2026-04-22 08:39 | 27.92730 | -15.39153 | 58 ft | 0 kts | 292° |